メインページ
METAR-TAF:

METAR-TAF

空港 :

Wanaham

リフー島, ニューカレドニア

緯度: 20-46S, 経度: 167-14E, 海抜: 28m

METAR: 見つかりません

時間: 07:34 (20:34 UTC)

予報

当レポートは3時間34分前の17:00(UTC)に作成
予報は15日の 18時(UTC)から 16日の 18時(UTC)まで有効
東/南東の風 8kt
視程10km以上
高度2500ftの雲は散在している
高度4000ftの雲は散在している
16日の 00時(UTC)から 16日の 08時(UTC)まで一時的に
高度2500ftの雲はほとんどない, 塔状積雲.
にわか雨

TAF: NWWL 151700Z 1518/1618 12008KT 9999 SCT025 SCT040 TEMPO 1600/1608 SHRA FEW025TCU

4,000以上の空港の気象観測と天気予報(METAR報とTAF報)

利用可能な観測所は地図上に黄色い丸と赤い丸で示す。

丸の上にカーソルを重ねると観測所名を参照できる。

次にクリックすると気象観測と天気予報を参照できる。

マップの切り替え:黒色「×」印の緑ボタンをクリックして拡大、「-」印の緑ボタンをクリックして縮小、緑色の三角印をクリックして隣りの地図に切り替え


METAR-TAF: